createdAt,value
2018-09-24T00:00:00.841Z,65.50
2018-09-24T00:02:30.872Z,65.60
2018-09-24T00:05:00.845Z,65.10
2018-09-24T00:07:30.713Z,65.50
2018-09-24T00:10:00.475Z,65.70
2018-09-24T00:12:30.545Z,64.80
2018-09-24T00:15:00.766Z,64.40
2018-09-24T00:17:31.175Z,64.60
2018-09-24T00:20:01.287Z,63.30
2018-09-24T00:22:31.052Z,63.60
2018-09-24T00:25:00.426Z,64.10
2018-09-24T00:27:29.967Z,64.50
2018-09-24T00:29:59.681Z,64.30
2018-09-24T00:32:30.394Z,64.60
2018-09-24T00:34:59.159Z,64.30
2018-09-24T00:37:28.540Z,63.90
2018-09-24T00:39:58.093Z,64.30
2018-09-24T00:42:27.376Z,64.40
2018-09-24T00:44:56.141Z,63.40
2018-09-24T00:47:25.198Z,63.70
2018-09-24T00:49:54.488Z,63.60
2018-09-24T00:52:23.962Z,64.00
2018-09-24T00:54:53.648Z,64.50
2018-09-24T00:57:22.919Z,64.40
2018-09-24T00:59:53.022Z,65.60
2018-09-24T01:02:22.687Z,65.60
2018-09-24T01:04:51.983Z,65.50
2018-09-24T01:07:21.157Z,65.40
2018-09-24T01:09:50.485Z,65.30
2018-09-24T01:12:20.009Z,65.60
2018-09-24T01:14:49.768Z,66.50
2018-09-24T01:17:19.993Z,66.70
2018-09-24T01:19:49.200Z,66.80
2018-09-24T01:22:19.168Z,66.50
2018-09-24T01:24:48.043Z,67.40
2018-09-24T01:27:18.321Z,68.00
2018-09-24T01:29:47.338Z,68.60
2018-09-24T01:32:16.304Z,68.40
2018-09-24T01:34:46.052Z,70.10
2018-09-24T01:37:15.624Z,69.10
2018-09-24T01:39:44.877Z,68.00
2018-09-24T01:42:14.102Z,68.30
2018-09-24T01:44:43.310Z,67.00
2018-09-24T01:47:13.556Z,66.80
2018-09-24T01:49:42.935Z,66.10
2018-09-24T01:52:12.380Z,66.10
2018-09-24T01:54:41.900Z,65.90
2018-09-24T01:57:17.770Z,66.30
2018-09-24T01:59:52.247Z,66.10
2018-09-24T02:02:21.936Z,65.90
2018-09-24T02:04:51.571Z,65.50
2018-09-24T02:07:21.247Z,65.60
2018-09-24T02:09:50.460Z,65.70
2018-09-24T02:12:20.386Z,65.60
2018-09-24T02:14:50.511Z,67.10
2018-09-24T02:17:21.217Z,66.50
2018-09-24T02:19:51.468Z,66.00
2018-09-24T02:22:27.920Z,66.40
2018-09-24T02:24:58.201Z,66.70
2018-09-24T02:27:28.192Z,66.90
2018-09-24T02:29:57.992Z,66.10
2018-09-24T02:32:27.381Z,66.40
2018-09-24T02:34:58.103Z,65.80
2018-09-24T02:37:28.031Z,65.20
2018-09-24T02:39:57.488Z,64.40
2018-09-24T02:42:27.138Z,65.40
2018-09-24T02:44:57.123Z,65.20
2018-09-24T02:47:31.521Z,64.40
2018-09-24T02:50:01.318Z,64.90
2018-09-24T02:52:30.953Z,64.90
2018-09-24T02:54:59.642Z,64.90
2018-09-24T02:57:29.853Z,64.40
2018-09-24T02:59:59.250Z,64.20
2018-09-24T03:02:28.511Z,64.60
2018-09-24T03:04:57.801Z,65.10
2018-09-24T03:07:27.427Z,65.20
2018-09-24T03:09:57.016Z,65.20
2018-09-24T03:12:26.236Z,65.40
2018-09-24T03:14:55.567Z,66.30
2018-09-24T03:17:24.990Z,65.50
2018-09-24T03:19:55.039Z,65.70
2018-09-24T03:22:25.848Z,64.70
2018-09-24T03:24:55.881Z,63.90
2018-09-24T03:27:25.192Z,64.40
2018-09-24T03:29:54.484Z,64.80
2018-09-24T03:32:23.394Z,64.10
2018-09-24T03:34:52.607Z,63.90
2018-09-24T03:37:22.461Z,64.10
2018-09-24T03:39:52.272Z,64.30
2018-09-24T03:42:22.489Z,64.20
2018-09-24T03:44:51.855Z,64.40
2018-09-24T03:47:21.676Z,64.70
2018-09-24T03:49:50.162Z,64.90
2018-09-24T03:52:20.064Z,65.80
2018-09-24T03:54:48.814Z,66.50
2018-09-24T03:57:17.606Z,64.60
2018-09-24T03:59:46.421Z,64.60
2018-09-24T04:02:15.139Z,64.30
2018-09-24T04:04:49.118Z,63.80
2018-09-24T04:07:23.124Z,64.70
2018-09-24T04:09:57.840Z,64.60
2018-09-24T04:12:31.764Z,64.20
2018-09-24T04:15:06.742Z,64.00
2018-09-24T04:17:41.317Z,64.00
2018-09-24T04:20:15.452Z,64.20
2018-09-24T04:22:49.858Z,64.60
2018-09-24T04:25:24.278Z,63.50
2018-09-24T04:27:58.596Z,64.80
2018-09-24T04:30:32.855Z,64.50
2018-09-24T04:33:07.149Z,65.70
2018-09-24T04:35:41.297Z,65.10
2018-09-24T04:38:15.410Z,65.10
2018-09-24T04:40:50.133Z,64.90
2018-09-24T04:43:24.843Z,64.50
2018-09-24T04:45:59.489Z,64.20
2018-09-24T04:48:34.314Z,64.40
2018-09-24T04:51:09.107Z,63.20
2018-09-24T04:53:43.840Z,63.20
2018-09-24T04:56:17.853Z,63.60
2018-09-24T04:58:52.163Z,63.80
2018-09-24T05:01:26.543Z,64.10
2018-09-24T05:04:00.816Z,63.30
2018-09-24T05:06:34.987Z,63.40
2018-09-24T05:09:09.096Z,63.40
2018-09-24T05:11:43.714Z,63.60
2018-09-24T05:14:18.080Z,63.20
2018-09-24T05:16:52.405Z,63.40
2018-09-24T05:19:26.936Z,63.20
2018-09-24T05:22:00.991Z,63.80
2018-09-24T05:24:34.933Z,64.40
2018-09-24T05:27:09.077Z,63.80
2018-09-24T05:29:43.378Z,63.30
2018-09-24T05:32:18.232Z,63.30
2018-09-24T05:34:52.578Z,63.10
2018-09-24T05:37:27.450Z,63.20
2018-09-24T05:40:01.375Z,63.50
2018-09-24T05:42:35.837Z,64.10
2018-09-24T05:45:10.282Z,64.50
2018-09-24T05:47:44.728Z,64.50
2018-09-24T05:50:19.862Z,64.00
2018-09-24T05:52:53.565Z,63.70
2018-09-24T05:55:28.560Z,63.40
2018-09-24T05:58:03.556Z,63.90
2018-09-24T06:00:37.959Z,64.50
2018-09-24T06:03:12.172Z,64.40
2018-09-24T06:05:47.245Z,64.00
2018-09-24T06:08:21.287Z,64.70
2018-09-24T06:10:55.991Z,64.40
2018-09-24T06:13:30.728Z,64.10
2018-09-24T06:16:05.718Z,63.70
2018-09-24T06:18:39.573Z,63.30
2018-09-24T06:21:14.912Z,63.30
2018-09-24T06:23:49.509Z,63.20
2018-09-24T06:26:23.740Z,63.20
2018-09-24T06:28:58.495Z,63.50
2018-09-24T06:31:34.200Z,63.30
2018-09-24T06:34:08.366Z,63.10
2018-09-24T06:36:42.805Z,62.90
2018-09-24T06:39:17.151Z,63.10
2018-09-24T06:41:52.334Z,63.20
2018-09-24T06:44:26.711Z,64.60
2018-09-24T06:47:01.138Z,63.80
2018-09-24T06:49:35.798Z,63.60
2018-09-24T06:52:10.323Z,63.50
2018-09-24T06:54:44.797Z,63.00
2018-09-24T06:57:19.426Z,63.00
2018-09-24T06:59:53.662Z,63.10
2018-09-24T07:02:28.902Z,63.30
2018-09-24T07:05:03.732Z,62.60
2018-09-24T07:07:38.544Z,62.50
2018-09-24T07:10:13.379Z,62.50
2018-09-24T07:12:48.016Z,62.40
2018-09-24T07:15:22.539Z,62.40
2018-09-24T07:17:56.511Z,62.90
2018-09-24T07:20:30.870Z,62.20
2018-09-24T07:23:04.777Z,61.70
2018-09-24T07:25:39.043Z,61.40
2018-09-24T07:28:14.010Z,60.60
2018-09-24T07:30:48.696Z,60.30
2018-09-24T07:33:24.128Z,60.70
2018-09-24T07:35:58.534Z,60.50
2018-09-24T07:38:34.068Z,60.10
2018-09-24T07:41:08.547Z,60.10
2018-09-24T07:43:43.338Z,60.40
2018-09-24T07:46:18.045Z,60.10
2018-09-24T07:48:52.699Z,60.40
2018-09-24T07:51:27.604Z,59.70
2018-09-24T07:54:02.195Z,60.20
2018-09-24T07:56:36.567Z,60.00
2018-09-24T07:59:11.076Z,59.90
2018-09-24T08:01:45.440Z,59.30
2018-09-24T08:04:20.222Z,57.30
2018-09-24T08:06:54.942Z,57.30
2018-09-24T08:09:30.304Z,57.10
2018-09-24T08:12:04.993Z,57.00
2018-09-24T08:14:39.651Z,56.60
2018-09-24T08:17:14.990Z,57.40
2018-09-24T08:19:49.885Z,57.70
2018-09-24T08:22:26.020Z,57.20
2018-09-24T08:25:01.015Z,57.60
2018-09-24T08:27:35.541Z,57.90
2018-09-24T08:30:10.312Z,56.70
2018-09-24T08:32:45.457Z,56.20
2018-09-24T08:35:19.624Z,55.90
2018-09-24T08:37:53.918Z,55.70
2018-09-24T08:40:28.336Z,55.50
2018-09-24T08:43:02.849Z,55.40
2018-09-24T08:45:37.158Z,55.50
2018-09-24T08:48:11.318Z,55.60
2018-09-24T08:50:45.488Z,54.80
2018-09-24T08:53:19.424Z,52.90
2018-09-24T08:55:54.222Z,54.50
2018-09-24T08:58:29.181Z,53.70
2018-09-24T09:01:03.292Z,53.00
2018-09-24T09:03:37.622Z,53.10
2018-09-24T09:06:12.713Z,52.80
2018-09-24T09:08:47.288Z,53.10
2018-09-24T09:11:21.229Z,53.20
2018-09-24T09:13:55.248Z,53.20
2018-09-24T09:16:29.439Z,52.80
2018-09-24T09:19:03.888Z,53.00
2018-09-24T09:21:37.724Z,53.60
2018-09-24T09:24:11.699Z,53.30
2018-09-24T09:26:45.932Z,52.50
2018-09-24T09:29:20.480Z,52.50
2018-09-24T09:31:54.867Z,52.80
2018-09-24T09:34:29.772Z,52.30
2018-09-24T09:37:03.936Z,52.60
2018-09-24T09:39:38.551Z,52.20
2018-09-24T09:42:13.391Z,51.80
2018-09-24T09:44:47.949Z,51.10
2018-09-24T09:47:22.887Z,50.70
2018-09-24T09:49:57.527Z,50.90
2018-09-24T09:52:31.926Z,50.50
2018-09-24T09:55:06.652Z,50.10
2018-09-24T09:57:40.985Z,50.50
2018-09-24T10:00:15.929Z,50.20
2018-09-24T10:02:50.564Z,49.20
2018-09-24T10:05:24.571Z,49.50
2018-09-24T10:07:58.480Z,49.60
2018-09-24T10:10:33.047Z,49.90
2018-09-24T10:13:07.422Z,49.30
2018-09-24T10:15:42.846Z,48.60
2018-09-24T10:18:17.948Z,49.70
2018-09-24T10:20:53.052Z,49.60
2018-09-24T10:23:27.657Z,49.00
2018-09-24T10:26:02.907Z,49.10
2018-09-24T10:28:37.616Z,49.50
2018-09-24T10:31:13.443Z,48.90
2018-09-24T10:33:48.153Z,48.60
2018-09-24T10:36:23.540Z,47.50
2018-09-24T10:38:57.805Z,47.00
2018-09-24T10:41:32.439Z,46.70
2018-09-24T10:44:08.456Z,46.60
2018-09-24T10:46:43.477Z,47.20
2018-09-24T10:49:18.033Z,47.30
2018-09-24T10:51:53.297Z,46.80
2018-09-24T10:54:28.275Z,46.50
2018-09-24T10:57:04.004Z,46.90
2018-09-24T10:59:38.844Z,46.90
2018-09-24T11:02:19.320Z,46.90
2018-09-24T11:04:54.137Z,46.90
2018-09-24T11:07:29.470Z,47.10
2018-09-24T11:10:04.217Z,47.10
2018-09-24T11:12:39.306Z,47.00
2018-09-24T11:15:14.101Z,45.80
2018-09-24T11:17:48.715Z,45.50
2018-09-24T11:20:22.687Z,44.30
2018-09-24T11:22:57.563Z,44.10
2018-09-24T11:25:32.451Z,43.70
2018-09-24T11:28:07.775Z,42.90
2018-09-24T11:30:42.655Z,43.50
2018-09-24T11:33:17.594Z,44.20
2018-09-24T11:35:52.317Z,44.00
2018-09-24T11:38:26.776Z,44.10
2018-09-24T11:41:02.201Z,44.90
2018-09-24T11:43:36.424Z,44.60
2018-09-24T11:46:11.645Z,44.90
2018-09-24T11:48:46.793Z,44.80
2018-09-24T11:51:21.151Z,44.50
2018-09-24T11:53:55.821Z,44.10
2018-09-24T11:56:31.356Z,44.80
2018-09-24T11:59:06.202Z,45.50
2018-09-24T12:01:41.563Z,45.00
2018-09-24T12:04:16.684Z,45.00
2018-09-24T12:06:52.554Z,44.00
2018-09-24T12:09:26.884Z,44.20
2018-09-24T12:12:01.821Z,44.10
2018-09-24T12:14:36.630Z,44.10
2018-09-24T12:17:11.374Z,43.90
2018-09-24T12:19:45.792Z,42.80
2018-09-24T12:22:21.379Z,43.30
2018-09-24T12:24:56.465Z,43.50
2018-09-24T12:27:31.440Z,44.10
2018-09-24T12:30:06.227Z,45.20
2018-09-24T12:32:40.348Z,43.90
2018-09-24T12:35:14.819Z,42.30
2018-09-24T12:37:49.918Z,40.90
2018-09-24T12:40:25.528Z,40.40
2018-09-24T12:43:00.072Z,41.90
2018-09-24T12:45:34.894Z,42.30
2018-09-24T12:48:09.554Z,41.90
2018-09-24T12:50:44.324Z,41.90
2018-09-24T12:53:18.706Z,42.00
2018-09-24T12:55:53.946Z,42.60
2018-09-24T12:58:29.218Z,43.40
2018-09-24T13:01:04.475Z,43.00
2018-09-24T13:03:38.943Z,43.40
2018-09-24T13:06:13.875Z,43.20
2018-09-24T13:08:49.028Z,43.90
2018-09-24T13:11:25.491Z,43.20
2018-09-24T13:14:01.035Z,43.20
2018-09-24T13:16:36.265Z,43.60
2018-09-24T13:19:10.981Z,43.30
2018-09-24T13:21:47.031Z,44.20
2018-09-24T13:24:21.613Z,42.90
2018-09-24T13:26:57.704Z,43.50
2018-09-24T13:29:32.535Z,42.30
2018-09-24T13:32:07.259Z,40.90
2018-09-24T13:34:42.067Z,40.40
2018-09-24T13:37:16.935Z,40.50
2018-09-24T13:39:51.567Z,40.00
2018-09-24T13:42:28.323Z,40.30
2018-09-24T13:45:02.405Z,40.30
2018-09-24T13:47:37.264Z,40.10
2018-09-24T13:50:11.874Z,40.50
2018-09-24T13:52:46.723Z,40.30
2018-09-24T13:55:21.440Z,40.10
2018-09-24T13:57:56.256Z,40.20
2018-09-24T14:00:30.908Z,39.80
2018-09-24T14:03:05.156Z,39.10
2018-09-24T14:05:40.258Z,39.00
2018-09-24T14:08:14.774Z,39.60
2018-09-24T14:10:49.695Z,39.50
2018-09-24T14:13:26.132Z,40.20
2018-09-24T14:16:01.439Z,38.80
2018-09-24T14:18:36.333Z,38.00
2018-09-24T14:21:11.281Z,37.60
2018-09-24T14:23:46.992Z,36.30
2018-09-24T14:26:22.173Z,35.30
2018-09-24T14:28:57.620Z,33.80
2018-09-24T14:31:33.266Z,33.70
2018-09-24T14:34:08.628Z,34.40
2018-09-24T14:36:43.647Z,35.50
2018-09-24T14:39:19.571Z,36.70
2018-09-24T14:41:56.659Z,37.30
2018-09-24T14:44:32.137Z,38.00
2018-09-24T14:47:07.028Z,38.30
2018-09-24T14:49:41.964Z,38.40
2018-09-24T14:52:16.903Z,39.40
2018-09-24T14:54:51.559Z,39.60
2018-09-24T14:57:26.552Z,39.40
2018-09-24T15:00:00.533Z,39.40
2018-09-24T15:02:36.811Z,39.30
2018-09-24T15:05:11.880Z,39.20
2018-09-24T15:07:46.712Z,39.30
2018-09-24T15:10:22.039Z,39.60
2018-09-24T15:12:56.859Z,39.50
2018-09-24T15:15:33.303Z,39.40
2018-09-24T15:18:08.383Z,39.70
2018-09-24T15:20:43.450Z,39.30
2018-09-24T15:23:18.037Z,40.00
2018-09-24T15:25:52.625Z,39.20
2018-09-24T15:28:28.452Z,38.90
2018-09-24T15:31:03.285Z,39.80
2018-09-24T15:33:38.153Z,39.90
2018-09-24T15:36:13.486Z,40.70
2018-09-24T15:38:48.677Z,40.40
2018-09-24T15:41:23.301Z,41.00
2018-09-24T15:43:58.310Z,40.90
2018-09-24T15:46:33.121Z,40.70
2018-09-24T15:49:08.276Z,40.70
2018-09-24T15:51:43.007Z,41.00
2018-09-24T15:54:18.074Z,40.40
2018-09-24T15:56:52.783Z,40.40
2018-09-24T15:59:27.513Z,40.50
2018-09-24T16:02:01.915Z,41.00
2018-09-24T16:04:37.623Z,41.10
2018-09-24T16:07:12.724Z,41.20
2018-09-24T16:09:47.323Z,41.40
2018-09-24T16:12:22.757Z,41.50
2018-09-24T16:14:57.949Z,41.20
2018-09-24T16:17:32.828Z,41.40
2018-09-24T16:20:07.265Z,41.20
2018-09-24T16:22:42.395Z,40.90
2018-09-24T16:25:16.825Z,41.20
2018-09-24T16:27:51.852Z,41.50
2018-09-24T16:30:26.377Z,42.00
2018-09-24T16:33:01.072Z,42.10
2018-09-24T16:35:35.309Z,42.20
2018-09-24T16:38:10.017Z,42.10
2018-09-24T16:40:44.715Z,42.20
2018-09-24T16:43:19.262Z,42.10
2018-09-24T16:45:53.939Z,42.30
2018-09-24T16:48:28.929Z,42.70
2018-09-24T16:51:03.576Z,43.20
2018-09-24T16:53:37.791Z,43.00
2018-09-24T16:56:11.809Z,43.10
2018-09-24T16:58:46.654Z,43.30
2018-09-24T17:01:21.782Z,43.70
2018-09-24T17:03:56.207Z,43.90
2018-09-24T17:06:31.477Z,44.50
2018-09-24T17:09:06.004Z,44.80
2018-09-24T17:11:41.234Z,44.90
2018-09-24T17:14:15.707Z,45.30
2018-09-24T17:16:50.413Z,45.50
2018-09-24T17:19:24.784Z,45.50
2018-09-24T17:21:58.967Z,46.40
2018-09-24T17:24:33.490Z,46.70
2018-09-24T17:27:08.607Z,47.10
2018-09-24T17:29:42.535Z,47.40
2018-09-24T17:32:16.869Z,47.40
2018-09-24T17:34:51.501Z,47.80
2018-09-24T17:37:25.975Z,47.90
2018-09-24T17:40:00.460Z,48.00
2018-09-24T17:42:35.416Z,48.60
2018-09-24T17:45:09.900Z,49.00
2018-09-24T17:47:44.394Z,49.40
2018-09-24T17:50:18.759Z,49.80
2018-09-24T17:52:53.527Z,50.00
2018-09-24T17:55:27.790Z,50.60
2018-09-24T17:58:02.282Z,50.80
2018-09-24T18:00:37.263Z,51.20
2018-09-24T18:03:11.872Z,51.20
2018-09-24T18:05:47.382Z,51.40
2018-09-24T18:08:22.170Z,51.40
2018-09-24T18:10:57.096Z,51.60
2018-09-24T18:13:31.502Z,51.60
2018-09-24T18:16:06.343Z,52.10
2018-09-24T18:18:40.654Z,52.20
2018-09-24T18:21:14.867Z,52.20
2018-09-24T18:23:49.355Z,52.50
2018-09-24T18:26:24.090Z,52.60
2018-09-24T18:28:58.301Z,53.10
2018-09-24T18:31:32.352Z,54.10
2018-09-24T18:34:06.545Z,54.50
2018-09-24T18:36:42.058Z,53.70
2018-09-24T18:39:17.280Z,53.70
2018-09-24T18:41:52.600Z,53.40
2018-09-24T18:44:27.062Z,53.50
2018-09-24T18:47:01.399Z,53.40
2018-09-24T18:49:36.491Z,52.80
2018-09-24T18:52:11.663Z,53.40
2018-09-24T18:54:46.563Z,54.50
2018-09-24T18:57:21.398Z,55.20
2018-09-24T18:59:56.882Z,55.30
2018-09-24T19:02:31.678Z,55.40
2018-09-24T19:05:06.685Z,55.50
2018-09-24T19:07:41.965Z,55.80
2018-09-24T19:10:23.585Z,56.10
2018-09-24T19:12:57.759Z,56.10
2018-09-24T19:15:32.751Z,56.30
2018-09-24T19:18:07.339Z,56.20
2018-09-24T19:20:42.351Z,55.80
2018-09-24T19:23:17.184Z,56.40
2018-09-24T19:25:52.243Z,56.70
2018-09-24T19:28:27.125Z,56.40
2018-09-24T19:31:02.291Z,56.50
2018-09-24T19:33:36.767Z,56.70
2018-09-24T19:36:11.820Z,56.90
2018-09-24T19:38:46.733Z,57.00
2018-09-24T19:41:21.550Z,57.20
2018-09-24T19:43:56.996Z,57.20
2018-09-24T19:46:31.780Z,57.50
2018-09-24T19:49:06.077Z,57.40
2018-09-24T19:51:40.035Z,57.30
2018-09-24T19:54:14.246Z,57.50
2018-09-24T19:56:49.004Z,57.50
2018-09-24T19:59:23.452Z,57.40
2018-09-24T20:01:58.337Z,57.20
2018-09-24T20:04:32.775Z,57.40
2018-09-24T20:07:07.995Z,57.30
2018-09-24T20:09:42.273Z,57.40
2018-09-24T20:12:16.499Z,57.60
2018-09-24T20:14:52.079Z,57.80
2018-09-24T20:17:26.868Z,58.00
2018-09-24T20:20:01.287Z,58.00
2018-09-24T20:22:36.023Z,58.00
2018-09-24T20:25:10.718Z,57.90
2018-09-24T20:27:45.477Z,58.10
2018-09-24T20:30:19.964Z,58.00
2018-09-24T20:32:56.040Z,57.90
2018-09-24T20:35:30.229Z,58.20
2018-09-24T20:38:05.223Z,57.50
2018-09-24T20:40:39.820Z,57.80
2018-09-24T20:43:14.413Z,57.90
2018-09-24T20:45:48.441Z,58.10
2018-09-24T20:48:24.737Z,58.30
2018-09-24T20:50:59.551Z,58.40
2018-09-24T20:53:37.370Z,58.40
2018-09-24T20:56:11.845Z,58.80
2018-09-24T20:58:46.499Z,58.80
2018-09-24T21:01:21.799Z,58.70
2018-09-24T21:03:56.880Z,58.10
2018-09-24T21:06:30.908Z,57.80
2018-09-24T21:09:05.410Z,57.30
2018-09-24T21:11:40.010Z,57.00
2018-09-24T21:14:15.412Z,56.50
2018-09-24T21:16:50.388Z,57.30
2018-09-24T21:19:25.394Z,57.70
2018-09-24T21:21:59.695Z,58.20
2018-09-24T21:24:34.823Z,58.10
2018-09-24T21:27:09.316Z,58.50
2018-09-24T21:29:43.635Z,58.60
2018-09-24T21:32:19.205Z,58.80
2018-09-24T21:34:54.095Z,58.60
2018-09-24T21:37:28.897Z,58.40
2018-09-24T21:40:03.983Z,58.10
2018-09-24T21:42:39.252Z,58.00
2018-09-24T21:45:14.156Z,58.10
2018-09-24T21:47:48.782Z,58.10
2018-09-24T21:50:24.056Z,58.20
2018-09-24T21:52:59.422Z,58.30
2018-09-24T21:55:33.807Z,58.00
2018-09-24T21:58:08.638Z,57.50
2018-09-24T22:00:43.676Z,57.40
2018-09-24T22:03:18.432Z,57.60
2018-09-24T22:05:53.143Z,57.30
2018-09-24T22:08:27.619Z,57.10
2018-09-24T22:11:02.994Z,57.30
2018-09-24T22:13:37.769Z,58.30
2018-09-24T22:16:12.455Z,59.20
2018-09-24T22:18:47.652Z,58.90
2018-09-24T22:21:22.921Z,59.20
2018-09-24T22:23:57.608Z,59.60
2018-09-24T22:26:32.172Z,59.20
2018-09-24T22:29:06.730Z,59.50
2018-09-24T22:31:41.247Z,59.20
2018-09-24T22:34:15.804Z,58.40
2018-09-24T22:36:50.584Z,58.20
2018-09-24T22:39:25.133Z,57.70
2018-09-24T22:41:59.902Z,57.30
2018-09-24T22:44:34.356Z,57.30
2018-09-24T22:47:09.240Z,57.00
2018-09-24T22:49:44.134Z,57.20
2018-09-24T22:52:18.612Z,57.70
2018-09-24T22:54:53.325Z,57.20
2018-09-24T22:57:27.960Z,58.40
2018-09-24T23:00:02.346Z,58.00
2018-09-24T23:02:37.188Z,58.00
2018-09-24T23:05:11.824Z,57.90
2018-09-24T23:07:46.790Z,57.50
2018-09-24T23:10:21.224Z,57.70
2018-09-24T23:12:56.321Z,57.50
2018-09-24T23:15:31.050Z,57.60
2018-09-24T23:18:05.741Z,57.20
2018-09-24T23:20:40.195Z,57.50
2018-09-24T23:23:15.277Z,57.40
2018-09-24T23:25:54.923Z,58.30
2018-09-24T23:28:29.894Z,58.90
2018-09-24T23:31:04.580Z,58.40
2018-09-24T23:33:39.483Z,58.20
2018-09-24T23:36:14.064Z,58.60
2018-09-24T23:38:49.023Z,58.40
2018-09-24T23:41:23.646Z,58.90
2018-09-24T23:43:58.431Z,58.70
2018-09-24T23:46:33.769Z,58.30
2018-09-24T23:49:08.405Z,58.70
2018-09-24T23:51:42.830Z,59.10
2018-09-24T23:54:17.723Z,59.30
2018-09-24T23:56:53.414Z,59.50
2018-09-24T23:59:28.185Z,59.50
